sensor_id;sensor_type;location;lat;lon;timestamp;P1;durP1;ratioP1;P2;durP2;ratioP2
52015;SDS011;38032;53.326;6.472;2022-07-29T00:00:43;4.88;;;2.60;;
52015;SDS011;38032;53.326;6.472;2022-07-29T00:03:10;3.17;;;2.50;;
52015;SDS011;38032;53.326;6.472;2022-07-29T00:05:38;5.88;;;2.70;;
52015;SDS011;38032;53.326;6.472;2022-07-29T00:08:05;4.88;;;2.58;;
52015;SDS011;38032;53.326;6.472;2022-07-29T00:10:31;3.50;;;2.42;;
52015;SDS011;38032;53.326;6.472;2022-07-29T00:12:56;6.97;;;3.05;;
52015;SDS011;38032;53.326;6.472;2022-07-29T00:15:22;4.03;;;2.80;;
52015;SDS011;38032;53.326;6.472;2022-07-29T00:17:48;4.88;;;2.50;;
52015;SDS011;38032;53.326;6.472;2022-07-29T00:20:14;5.28;;;2.72;;
52015;SDS011;38032;53.326;6.472;2022-07-29T00:22:39;4.18;;;2.50;;
52015;SDS011;38032;53.326;6.472;2022-07-29T00:25:07;3.95;;;2.40;;
52015;SDS011;38032;53.326;6.472;2022-07-29T00:27:34;4.03;;;2.28;;
52015;SDS011;38032;53.326;6.472;2022-07-29T00:30:00;4.82;;;2.40;;
52015;SDS011;38032;53.326;6.472;2022-07-29T00:32:26;8.55;;;2.42;;
52015;SDS011;38032;53.326;6.472;2022-07-29T00:34:52;4.75;;;2.20;;
52015;SDS011;38032;53.326;6.472;2022-07-29T00:37:36;3.97;;;2.17;;
52015;SDS011;38032;53.326;6.472;2022-07-29T00:40:02;4.13;;;2.10;;
52015;SDS011;38032;53.326;6.472;2022-07-29T00:42:28;6.03;;;2.78;;
52015;SDS011;38032;53.326;6.472;2022-07-29T00:44:54;2.92;;;1.95;;
52015;SDS011;38032;53.326;6.472;2022-07-29T00:47:20;5.82;;;2.28;;
52015;SDS011;38032;53.326;6.472;2022-07-29T00:49:46;4.22;;;2.33;;
52015;SDS011;38032;53.326;6.472;2022-07-29T00:52:12;6.35;;;2.40;;
52015;SDS011;38032;53.326;6.472;2022-07-29T00:54:38;5.38;;;2.60;;
52015;SDS011;38032;53.326;6.472;2022-07-29T00:57:05;4.32;;;2.65;;
52015;SDS011;38032;53.326;6.472;2022-07-29T00:59:32;4.65;;;2.60;;
52015;SDS011;38032;53.326;6.472;2022-07-29T01:01:58;3.90;;;2.88;;
52015;SDS011;38032;53.326;6.472;2022-07-29T01:04:24;4.30;;;2.80;;
52015;SDS011;38032;53.326;6.472;2022-07-29T01:06:51;4.95;;;2.70;;
52015;SDS011;38032;53.326;6.472;2022-07-29T01:09:17;4.60;;;2.90;;
52015;SDS011;38032;53.326;6.472;2022-07-29T01:11:44;3.88;;;2.83;;
52015;SDS011;38032;53.326;6.472;2022-07-29T01:14:12;6.00;;;2.60;;
52015;SDS011;38032;53.326;6.472;2022-07-29T01:16:49;5.60;;;2.80;;
52015;SDS011;38032;53.326;6.472;2022-07-29T01:22:17;4.13;;;2.58;;
52015;SDS011;38032;53.326;6.472;2022-07-29T01:27:38;5.35;;;2.88;;
52015;SDS011;38032;53.326;6.472;2022-07-29T01:30:14;6.28;;;2.60;;
52015;SDS011;38032;53.326;6.472;2022-07-29T01:32:40;4.55;;;2.47;;
52015;SDS011;38032;53.326;6.472;2022-07-29T01:35:25;4.53;;;2.60;;
52015;SDS011;38032;53.326;6.472;2022-07-29T01:38:00;6.65;;;2.47;;
52015;SDS011;38032;53.326;6.472;2022-07-29T01:43:14;6.47;;;2.80;;
52015;SDS011;38032;53.326;6.472;2022-07-29T01:45:51;3.35;;;2.65;;
52015;SDS011;38032;53.326;6.472;2022-07-29T01:48:23;5.90;;;2.60;;
52015;SDS011;38032;53.326;6.472;2022-07-29T01:51:07;5.10;;;2.47;;
52015;SDS011;38032;53.326;6.472;2022-07-29T01:53:37;5.35;;;2.58;;
52015;SDS011;38032;53.326;6.472;2022-07-29T01:56:13;5.03;;;2.70;;
52015;SDS011;38032;53.326;6.472;2022-07-29T01:58:41;6.82;;;2.30;;
52015;SDS011;38032;53.326;6.472;2022-07-29T02:01:10;4.13;;;2.50;;
52015;SDS011;38032;53.326;6.472;2022-07-29T02:03:38;5.70;;;2.30;;
52015;SDS011;38032;53.326;6.472;2022-07-29T02:06:06;4.82;;;2.58;;
52015;SDS011;38032;53.326;6.472;2022-07-29T02:08:34;6.35;;;2.08;;
52015;SDS011;38032;53.326;6.472;2022-07-29T02:11:02;4.22;;;2.00;;
52015;SDS011;38032;53.326;6.472;2022-07-29T02:13:29;5.88;;;2.53;;
52015;SDS011;38032;53.326;6.472;2022-07-29T02:15:57;5.35;;;2.60;;
52015;SDS011;38032;53.326;6.472;2022-07-29T02:18:25;5.57;;;2.70;;
52015;SDS011;38032;53.326;6.472;2022-07-29T02:20:53;4.82;;;2.92;;
52015;SDS011;38032;53.326;6.472;2022-07-29T02:23:22;6.93;;;3.10;;
52015;SDS011;38032;53.326;6.472;2022-07-29T02:25:49;7.25;;;2.92;;
52015;SDS011;38032;53.326;6.472;2022-07-29T02:28:18;5.05;;;3.08;;
52015;SDS011;38032;53.326;6.472;2022-07-29T02:30:45;4.53;;;2.75;;
52015;SDS011;38032;53.326;6.472;2022-07-29T02:33:13;4.47;;;2.70;;
52015;SDS011;38032;53.326;6.472;2022-07-29T02:35:41;6.22;;;3.03;;
52015;SDS011;38032;53.326;6.472;2022-07-29T02:38:09;4.97;;;2.67;;
52015;SDS011;38032;53.326;6.472;2022-07-29T02:40:58;5.47;;;2.80;;
52015;SDS011;38032;53.326;6.472;2022-07-29T02:43:26;4.80;;;2.67;;
52015;SDS011;38032;53.326;6.472;2022-07-29T02:45:55;4.78;;;2.67;;
52015;SDS011;38032;53.326;6.472;2022-07-29T02:48:27;5.05;;;2.72;;
52015;SDS011;38032;53.326;6.472;2022-07-29T02:51:04;5.85;;;2.88;;
52015;SDS011;38032;53.326;6.472;2022-07-29T02:53:33;5.93;;;2.70;;
52015;SDS011;38032;53.326;6.472;2022-07-29T02:56:04;4.32;;;2.75;;
52015;SDS011;38032;53.326;6.472;2022-07-29T02:58:38;5.10;;;2.45;;
52015;SDS011;38032;53.326;6.472;2022-07-29T03:01:11;7.70;;;2.95;;
52015;SDS011;38032;53.326;6.472;2022-07-29T03:03:40;7.28;;;2.50;;
52015;SDS011;38032;53.326;6.472;2022-07-29T03:06:09;6.15;;;2.55;;
52015;SDS011;38032;53.326;6.472;2022-07-29T03:08:38;7.05;;;3.00;;
52015;SDS011;38032;53.326;6.472;2022-07-29T03:11:05;4.35;;;2.45;;
52015;SDS011;38032;53.326;6.472;2022-07-29T03:13:34;4.20;;;2.50;;
52015;SDS011;38032;53.326;6.472;2022-07-29T03:16:01;4.97;;;2.40;;
52015;SDS011;38032;53.326;6.472;2022-07-29T03:18:27;4.30;;;2.10;;
52015;SDS011;38032;53.326;6.472;2022-07-29T03:20:53;4.50;;;2.42;;
52015;SDS011;38032;53.326;6.472;2022-07-29T03:23:20;4.53;;;2.42;;
52015;SDS011;38032;53.326;6.472;2022-07-29T03:25:48;5.90;;;2.35;;
52015;SDS011;38032;53.326;6.472;2022-07-29T03:28:15;4.47;;;2.40;;
52015;SDS011;38032;53.326;6.472;2022-07-29T03:30:41;5.78;;;2.65;;
52015;SDS011;38032;53.326;6.472;2022-07-29T03:33:07;4.97;;;2.40;;
52015;SDS011;38032;53.326;6.472;2022-07-29T03:35:32;5.55;;;2.38;;
52015;SDS011;38032;53.326;6.472;2022-07-29T03:37:58;4.47;;;2.10;;
52015;SDS011;38032;53.326;6.472;2022-07-29T03:40:26;4.07;;;2.25;;
52015;SDS011;38032;53.326;6.472;2022-07-29T03:42:57;4.28;;;2.33;;
52015;SDS011;38032;53.326;6.472;2022-07-29T03:45:25;4.05;;;2.38;;
52015;SDS011;38032;53.326;6.472;2022-07-29T03:47:59;5.82;;;2.70;;
52015;SDS011;38032;53.326;6.472;2022-07-29T03:50:29;5.38;;;2.40;;
52015;SDS011;38032;53.326;6.472;2022-07-29T03:52:56;6.22;;;2.30;;
52015;SDS011;38032;53.326;6.472;2022-07-29T03:55:22;3.95;;;2.42;;
52015;SDS011;38032;53.326;6.472;2022-07-29T03:57:49;4.55;;;2.67;;
52015;SDS011;38032;53.326;6.472;2022-07-29T04:00:16;4.65;;;2.65;;
52015;SDS011;38032;53.326;6.472;2022-07-29T04:02:42;4.68;;;2.60;;
52015;SDS011;38032;53.326;6.472;2022-07-29T04:05:13;7.53;;;2.70;;
52015;SDS011;38032;53.326;6.472;2022-07-29T04:07:40;4.85;;;2.53;;
52015;SDS011;38032;53.326;6.472;2022-07-29T04:10:09;4.45;;;2.53;;
52015;SDS011;38032;53.326;6.472;2022-07-29T04:12:34;5.97;;;2.38;;
52015;SDS011;38032;53.326;6.472;2022-07-29T04:15:01;4.63;;;2.30;;
52015;SDS011;38032;53.326;6.472;2022-07-29T04:17:28;6.65;;;2.80;;
52015;SDS011;38032;53.326;6.472;2022-07-29T04:19:54;5.72;;;2.30;;
52015;SDS011;38032;53.326;6.472;2022-07-29T04:22:20;5.72;;;2.35;;
52015;SDS011;38032;53.326;6.472;2022-07-29T04:24:46;5.80;;;2.40;;
52015;SDS011;38032;53.326;6.472;2022-07-29T04:27:11;4.40;;;2.35;;
52015;SDS011;38032;53.326;6.472;2022-07-29T04:29:37;6.45;;;2.50;;
52015;SDS011;38032;53.326;6.472;2022-07-29T04:32:03;6.90;;;2.30;;
52015;SDS011;38032;53.326;6.472;2022-07-29T04:34:29;6.10;;;2.17;;
52015;SDS011;38032;53.326;6.472;2022-07-29T04:36:55;6.32;;;2.20;;
52015;SDS011;38032;53.326;6.472;2022-07-29T04:39:21;4.45;;;2.20;;
52015;SDS011;38032;53.326;6.472;2022-07-29T04:41:47;3.65;;;2.05;;
52015;SDS011;38032;53.326;6.472;2022-07-29T04:44:14;5.60;;;2.33;;
52015;SDS011;38032;53.326;6.472;2022-07-29T04:46:40;5.50;;;2.40;;
52015;SDS011;38032;53.326;6.472;2022-07-29T04:49:05;4.93;;;2.50;;
52015;SDS011;38032;53.326;6.472;2022-07-29T04:51:31;5.88;;;2.15;;
52015;SDS011;38032;53.326;6.472;2022-07-29T04:53:58;5.03;;;2.42;;
52015;SDS011;38032;53.326;6.472;2022-07-29T04:56:24;5.95;;;2.30;;
52015;SDS011;38032;53.326;6.472;2022-07-29T04:58:49;5.75;;;2.28;;
52015;SDS011;38032;53.326;6.472;2022-07-29T05:01:15;5.65;;;2.10;;
52015;SDS011;38032;53.326;6.472;2022-07-29T05:03:41;6.07;;;2.20;;
52015;SDS011;38032;53.326;6.472;2022-07-29T05:06:07;6.00;;;2.05;;
52015;SDS011;38032;53.326;6.472;2022-07-29T05:08:33;4.63;;;2.20;;
52015;SDS011;38032;53.326;6.472;2022-07-29T05:10:59;4.20;;;2.05;;
52015;SDS011;38032;53.326;6.472;2022-07-29T05:13:24;4.72;;;2.08;;
52015;SDS011;38032;53.326;6.472;2022-07-29T05:15:50;5.38;;;2.17;;
52015;SDS011;38032;53.326;6.472;2022-07-29T05:18:16;3.78;;;2.10;;
52015;SDS011;38032;53.326;6.472;2022-07-29T05:20:42;5.07;;;2.20;;
52015;SDS011;38032;53.326;6.472;2022-07-29T05:23:07;5.03;;;2.25;;
52015;SDS011;38032;53.326;6.472;2022-07-29T05:25:33;3.78;;;2.13;;
52015;SDS011;38032;53.326;6.472;2022-07-29T05:28:00;6.32;;;2.08;;
52015;SDS011;38032;53.326;6.472;2022-07-29T05:30:25;5.47;;;2.05;;
52015;SDS011;38032;53.326;6.472;2022-07-29T05:32:51;3.92;;;2.03;;
52015;SDS011;38032;53.326;6.472;2022-07-29T05:35:17;4.57;;;2.25;;
52015;SDS011;38032;53.326;6.472;2022-07-29T05:37:43;6.43;;;2.25;;
52015;SDS011;38032;53.326;6.472;2022-07-29T05:40:09;3.97;;;1.92;;
52015;SDS011;38032;53.326;6.472;2022-07-29T05:42:35;4.93;;;2.17;;
52015;SDS011;38032;53.326;6.472;2022-07-29T05:45:01;4.93;;;2.28;;
52015;SDS011;38032;53.326;6.472;2022-07-29T05:47:28;4.60;;;2.20;;
52015;SDS011;38032;53.326;6.472;2022-07-29T05:49:53;4.75;;;2.22;;
52015;SDS011;38032;53.326;6.472;2022-07-29T05:52:19;5.13;;;2.20;;
52015;SDS011;38032;53.326;6.472;2022-07-29T05:54:46;4.68;;;2.05;;
52015;SDS011;38032;53.326;6.472;2022-07-29T05:57:15;7.50;;;2.30;;
52015;SDS011;38032;53.326;6.472;2022-07-29T05:59:41;8.32;;;2.25;;
52015;SDS011;38032;53.326;6.472;2022-07-29T06:02:07;5.10;;;2.40;;
52015;SDS011;38032;53.326;6.472;2022-07-29T06:04:33;4.70;;;2.20;;
52015;SDS011;38032;53.326;6.472;2022-07-29T06:06:59;5.65;;;2.10;;
52015;SDS011;38032;53.326;6.472;2022-07-29T06:09:25;3.75;;;2.03;;
52015;SDS011;38032;53.326;6.472;2022-07-29T06:11:51;6.05;;;2.20;;
52015;SDS011;38032;53.326;6.472;2022-07-29T06:14:17;4.85;;;2.10;;
52015;SDS011;38032;53.326;6.472;2022-07-29T06:16:43;5.65;;;2.05;;
52015;SDS011;38032;53.326;6.472;2022-07-29T06:19:09;6.53;;;2.25;;
52015;SDS011;38032;53.326;6.472;2022-07-29T06:21:35;4.68;;;2.30;;
52015;SDS011;38032;53.326;6.472;2022-07-29T06:24:01;6.90;;;2.80;;
52015;SDS011;38032;53.326;6.472;2022-07-29T06:26:27;5.53;;;2.30;;
52015;SDS011;38032;53.326;6.472;2022-07-29T06:28:53;8.30;;;2.40;;
52015;SDS011;38032;53.326;6.472;2022-07-29T06:31:18;5.80;;;1.92;;
52015;SDS011;38032;53.326;6.472;2022-07-29T06:33:44;7.57;;;2.35;;
52015;SDS011;38032;53.326;6.472;2022-07-29T06:36:10;3.78;;;2.20;;
52015;SDS011;38032;53.326;6.472;2022-07-29T06:38:36;5.15;;;2.20;;
52015;SDS011;38032;53.326;6.472;2022-07-29T06:41:03;7.30;;;2.10;;
52015;SDS011;38032;53.326;6.472;2022-07-29T06:43:32;8.38;;;2.17;;
52015;SDS011;38032;53.326;6.472;2022-07-29T06:46:03;4.18;;;2.17;;
52015;SDS011;38032;53.326;6.472;2022-07-29T06:48:31;5.65;;;2.60;;
52015;SDS011;38032;53.326;6.472;2022-07-29T06:50:58;5.45;;;2.38;;
52015;SDS011;38032;53.326;6.472;2022-07-29T06:53:24;4.53;;;2.38;;
52015;SDS011;38032;53.326;6.472;2022-07-29T06:55:51;8.05;;;2.30;;
52015;SDS011;38032;53.326;6.472;2022-07-29T06:58:17;7.88;;;2.55;;
52015;SDS011;38032;53.326;6.472;2022-07-29T07:00:45;6.45;;;2.30;;
52015;SDS011;38032;53.326;6.472;2022-07-29T07:03:13;6.60;;;2.30;;
52015;SDS011;38032;53.326;6.472;2022-07-29T07:05:39;5.00;;;2.22;;
52015;SDS011;38032;53.326;6.472;2022-07-29T07:08:05;4.93;;;2.58;;
52015;SDS011;38032;53.326;6.472;2022-07-29T07:10:32;5.15;;;2.30;;
52015;SDS011;38032;53.326;6.472;2022-07-29T07:12:58;3.83;;;2.30;;
52015;SDS011;38032;53.326;6.472;2022-07-29T07:15:24;8.82;;;2.53;;
52015;SDS011;38032;53.326;6.472;2022-07-29T07:17:50;5.60;;;2.22;;
52015;SDS011;38032;53.326;6.472;2022-07-29T07:20:16;6.47;;;2.25;;
52015;SDS011;38032;53.326;6.472;2022-07-29T07:22:42;6.85;;;2.47;;
52015;SDS011;38032;53.326;6.472;2022-07-29T07:25:08;5.00;;;2.20;;
52015;SDS011;38032;53.326;6.472;2022-07-29T07:27:35;4.93;;;2.50;;
52015;SDS011;38032;53.326;6.472;2022-07-29T07:30:02;5.15;;;2.28;;
52015;SDS011;38032;53.326;6.472;2022-07-29T07:32:31;5.13;;;2.10;;
52015;SDS011;38032;53.326;6.472;2022-07-29T07:34:57;5.40;;;2.45;;
52015;SDS011;38032;53.326;6.472;2022-07-29T07:37:24;3.65;;;2.13;;
52015;SDS011;38032;53.326;6.472;2022-07-29T07:39:51;7.35;;;2.20;;
52015;SDS011;38032;53.326;6.472;2022-07-29T07:42:17;3.60;;;2.20;;
52015;SDS011;38032;53.326;6.472;2022-07-29T07:44:44;9.13;;;2.17;;
52015;SDS011;38032;53.326;6.472;2022-07-29T07:47:11;6.07;;;2.63;;
52015;SDS011;38032;53.326;6.472;2022-07-29T07:49:38;3.70;;;2.03;;
52015;SDS011;38032;53.326;6.472;2022-07-29T07:52:03;5.28;;;2.15;;
52015;SDS011;38032;53.326;6.472;2022-07-29T07:54:30;4.40;;;2.03;;
52015;SDS011;38032;53.326;6.472;2022-07-29T07:56:56;3.50;;;2.28;;
52015;SDS011;38032;53.326;6.472;2022-07-29T07:59:22;4.95;;;2.30;;
52015;SDS011;38032;53.326;6.472;2022-07-29T08:01:48;10.23;;;2.88;;
52015;SDS011;38032;53.326;6.472;2022-07-29T08:04:15;6.82;;;2.55;;
52015;SDS011;38032;53.326;6.472;2022-07-29T08:06:40;4.38;;;2.30;;
52015;SDS011;38032;53.326;6.472;2022-07-29T08:09:07;4.85;;;2.30;;
52015;SDS011;38032;53.326;6.472;2022-07-29T08:11:33;7.00;;;2.28;;
52015;SDS011;38032;53.326;6.472;2022-07-29T08:13:58;4.55;;;2.28;;
52015;SDS011;38032;53.326;6.472;2022-07-29T08:16:26;4.63;;;2.72;;
52015;SDS011;38032;53.326;6.472;2022-07-29T08:18:52;5.00;;;2.45;;
52015;SDS011;38032;53.326;6.472;2022-07-29T08:21:22;8.65;;;2.40;;
52015;SDS011;38032;53.326;6.472;2022-07-29T08:23:49;5.25;;;2.63;;
52015;SDS011;38032;53.326;6.472;2022-07-29T08:26:17;5.22;;;2.38;;
52015;SDS011;38032;53.326;6.472;2022-07-29T08:28:45;3.58;;;1.85;;
52015;SDS011;38032;53.326;6.472;2022-07-29T08:31:14;5.60;;;2.28;;
52015;SDS011;38032;53.326;6.472;2022-07-29T08:33:41;6.78;;;2.08;;
52015;SDS011;38032;53.326;6.472;2022-07-29T08:36:07;5.05;;;2.53;;
52015;SDS011;38032;53.326;6.472;2022-07-29T08:38:33;5.90;;;2.10;;
52015;SDS011;38032;53.326;6.472;2022-07-29T08:41:00;5.22;;;2.42;;
52015;SDS011;38032;53.326;6.472;2022-07-29T08:43:27;7.47;;;2.58;;
52015;SDS011;38032;53.326;6.472;2022-07-29T08:45:57;6.82;;;2.20;;
52015;SDS011;38032;53.326;6.472;2022-07-29T08:48:23;5.03;;;1.95;;
52015;SDS011;38032;53.326;6.472;2022-07-29T08:50:52;10.60;;;2.60;;
52015;SDS011;38032;53.326;6.472;2022-07-29T08:53:20;4.55;;;2.20;;
52015;SDS011;38032;53.326;6.472;2022-07-29T08:55:47;4.55;;;2.20;;
52015;SDS011;38032;53.326;6.472;2022-07-29T08:58:14;3.83;;;1.90;;
52015;SDS011;38032;53.326;6.472;2022-07-29T09:00:42;8.68;;;2.17;;
52015;SDS011;38032;53.326;6.472;2022-07-29T09:03:12;5.10;;;2.10;;
52015;SDS011;38032;53.326;6.472;2022-07-29T09:05:41;6.43;;;2.20;;
52015;SDS011;38032;53.326;6.472;2022-07-29T09:08:07;6.28;;;2.75;;
52015;SDS011;38032;53.326;6.472;2022-07-29T09:10:35;5.15;;;2.35;;
52015;SDS011;38032;53.326;6.472;2022-07-29T09:13:01;10.68;;;2.65;;
52015;SDS011;38032;53.326;6.472;2022-07-29T09:15:28;3.70;;;2.40;;
52015;SDS011;38032;53.326;6.472;2022-07-29T09:17:53;4.93;;;2.10;;
52015;SDS011;38032;53.326;6.472;2022-07-29T09:20:21;5.10;;;2.38;;
52015;SDS011;38032;53.326;6.472;2022-07-29T09:22:48;3.35;;;2.13;;
52015;SDS011;38032;53.326;6.472;2022-07-29T09:25:31;6.38;;;2.75;;
52015;SDS011;38032;53.326;6.472;2022-07-29T09:28:05;8.70;;;2.63;;
52015;SDS011;38032;53.326;6.472;2022-07-29T09:30:32;4.72;;;2.33;;
52015;SDS011;38032;53.326;6.472;2022-07-29T09:33:01;4.43;;;2.30;;
52015;SDS011;38032;53.326;6.472;2022-07-29T09:35:28;12.68;;;2.60;;
52015;SDS011;38032;53.326;6.472;2022-07-29T09:37:54;4.53;;;2.10;;
52015;SDS011;38032;53.326;6.472;2022-07-29T09:40:21;7.65;;;2.38;;
52015;SDS011;38032;53.326;6.472;2022-07-29T09:42:49;5.78;;;2.38;;
52015;SDS011;38032;53.326;6.472;2022-07-29T09:45:27;4.57;;;2.30;;
52015;SDS011;38032;53.326;6.472;2022-07-29T09:47:55;8.82;;;2.65;;
52015;SDS011;38032;53.326;6.472;2022-07-29T09:50:34;7.10;;;2.78;;
52015;SDS011;38032;53.326;6.472;2022-07-29T09:53:01;5.07;;;2.33;;
52015;SDS011;38032;53.326;6.472;2022-07-29T09:55:27;6.95;;;2.55;;
52015;SDS011;38032;53.326;6.472;2022-07-29T09:57:52;4.45;;;2.20;;
52015;SDS011;38032;53.326;6.472;2022-07-29T10:00:19;4.32;;;2.20;;
52015;SDS011;38032;53.326;6.472;2022-07-29T10:02:48;5.03;;;2.30;;
52015;SDS011;38032;53.326;6.472;2022-07-29T10:05:19;9.02;;;2.50;;
52015;SDS011;38032;53.326;6.472;2022-07-29T10:07:51;5.70;;;2.33;;
52015;SDS011;38032;53.326;6.472;2022-07-29T10:10:20;7.55;;;2.63;;
52015;SDS011;38032;53.326;6.472;2022-07-29T10:12:52;5.28;;;2.47;;
52015;SDS011;38032;53.326;6.472;2022-07-29T10:15:20;4.28;;;2.25;;
52015;SDS011;38032;53.326;6.472;2022-07-29T10:17:48;5.38;;;2.83;;
52015;SDS011;38032;53.326;6.472;2022-07-29T10:20:15;4.68;;;2.42;;
52015;SDS011;38032;53.326;6.472;2022-07-29T10:22:42;6.05;;;2.40;;
52015;SDS011;38032;53.326;6.472;2022-07-29T10:25:09;3.70;;;2.50;;
52015;SDS011;38032;53.326;6.472;2022-07-29T10:27:35;4.72;;;2.70;;
52015;SDS011;38032;53.326;6.472;2022-07-29T10:30:03;5.97;;;2.78;;
52015;SDS011;38032;53.326;6.472;2022-07-29T10:37:39;6.93;;;2.90;;
52015;SDS011;38032;53.326;6.472;2022-07-29T10:43:18;5.88;;;2.63;;
52015;SDS011;38032;53.326;6.472;2022-07-29T10:45:47;5.18;;;2.55;;
52015;SDS011;38032;53.326;6.472;2022-07-29T10:48:19;8.35;;;2.90;;
52015;SDS011;38032;53.326;6.472;2022-07-29T10:50:53;4.22;;;2.53;;
52015;SDS011;38032;53.326;6.472;2022-07-29T10:56:27;6.95;;;3.10;;
52015;SDS011;38032;53.326;6.472;2022-07-29T10:59:24;5.68;;;2.70;;
52015;SDS011;38032;53.326;6.472;2022-07-29T11:01:51;6.90;;;2.63;;
52015;SDS011;38032;53.326;6.472;2022-07-29T11:07:10;5.18;;;2.70;;
52015;SDS011;38032;53.326;6.472;2022-07-29T11:09:36;4.70;;;2.67;;
52015;SDS011;38032;53.326;6.472;2022-07-29T11:12:03;6.68;;;2.70;;
52015;SDS011;38032;53.326;6.472;2022-07-29T11:17:20;6.78;;;2.65;;
52015;SDS011;38032;53.326;6.472;2022-07-29T11:19:46;8.70;;;2.90;;
52015;SDS011;38032;53.326;6.472;2022-07-29T11:22:30;4.40;;;2.55;;
52015;SDS011;38032;53.326;6.472;2022-07-29T11:25:14;5.45;;;2.85;;
52015;SDS011;38032;53.326;6.472;2022-07-29T11:27:40;5.80;;;3.10;;
52015;SDS011;38032;53.326;6.472;2022-07-29T11:30:06;7.32;;;3.10;;
52015;SDS011;38032;53.326;6.472;2022-07-29T11:32:37;5.38;;;2.88;;
52015;SDS011;38032;53.326;6.472;2022-07-29T11:35:11;4.68;;;2.78;;
52015;SDS011;38032;53.326;6.472;2022-07-29T11:37:38;6.88;;;3.25;;
52015;SDS011;38032;53.326;6.472;2022-07-29T11:45:08;7.75;;;3.00;;
52015;SDS011;38032;53.326;6.472;2022-07-29T11:47:38;5.70;;;2.83;;
52015;SDS011;38032;53.326;6.472;2022-07-29T11:50:07;5.28;;;2.95;;
52015;SDS011;38032;53.326;6.472;2022-07-29T11:52:39;4.43;;;3.00;;
52015;SDS011;38032;53.326;6.472;2022-07-29T11:55:09;5.37;;;2.90;;
52015;SDS011;38032;53.326;6.472;2022-07-29T11:57:37;7.00;;;2.78;;
52015;SDS011;38032;53.326;6.472;2022-07-29T12:00:11;5.45;;;3.00;;
52015;SDS011;38032;53.326;6.472;2022-07-29T12:02:41;6.97;;;3.28;;
52015;SDS011;38032;53.326;6.472;2022-07-29T12:05:09;6.18;;;3.20;;
52015;SDS011;38032;53.326;6.472;2022-07-29T12:07:36;8.35;;;3.13;;
52015;SDS011;38032;53.326;6.472;2022-07-29T12:10:04;5.50;;;3.00;;
52015;SDS011;38032;53.326;6.472;2022-07-29T12:12:31;7.95;;;2.92;;
52015;SDS011;38032;53.326;6.472;2022-07-29T12:14:57;6.95;;;3.22;;
52015;SDS011;38032;53.326;6.472;2022-07-29T12:17:31;5.80;;;2.88;;
52015;SDS011;38032;53.326;6.472;2022-07-29T12:20:00;5.75;;;3.10;;
52015;SDS011;38032;53.326;6.472;2022-07-29T12:22:29;6.38;;;3.55;;
52015;SDS011;38032;53.326;6.472;2022-07-29T12:25:01;6.05;;;3.28;;
52015;SDS011;38032;53.326;6.472;2022-07-29T12:27:29;9.85;;;3.53;;
52015;SDS011;38032;53.326;6.472;2022-07-29T12:29:56;4.95;;;2.90;;
52015;SDS011;38032;53.326;6.472;2022-07-29T12:32:30;8.43;;;3.50;;
52015;SDS011;38032;53.326;6.472;2022-07-29T12:34:57;5.63;;;3.20;;
52015;SDS011;38032;53.326;6.472;2022-07-29T12:37:24;7.10;;;3.40;;
52015;SDS011;38032;53.326;6.472;2022-07-29T12:39:49;6.07;;;3.30;;
52015;SDS011;38032;53.326;6.472;2022-07-29T12:42:16;6.68;;;2.95;;
52015;SDS011;38032;53.326;6.472;2022-07-29T12:44:49;6.60;;;3.22;;
52015;SDS011;38032;53.326;6.472;2022-07-29T12:47:17;5.32;;;3.13;;
52015;SDS011;38032;53.326;6.472;2022-07-29T12:49:44;8.60;;;3.53;;
52015;SDS011;38032;53.326;6.472;2022-07-29T12:52:33;6.22;;;3.00;;
52015;SDS011;38032;53.326;6.472;2022-07-29T12:54:59;9.15;;;2.90;;
52015;SDS011;38032;53.326;6.472;2022-07-29T12:57:26;4.22;;;2.45;;
52015;SDS011;38032;53.326;6.472;2022-07-29T12:59:59;5.40;;;2.85;;
52015;SDS011;38032;53.326;6.472;2022-07-29T13:02:28;4.90;;;2.55;;
52015;SDS011;38032;53.326;6.472;2022-07-29T13:04:54;6.18;;;2.85;;
52015;SDS011;38032;53.326;6.472;2022-07-29T13:07:24;7.90;;;2.50;;
52015;SDS011;38032;53.326;6.472;2022-07-29T13:09:52;5.40;;;2.70;;
52015;SDS011;38032;53.326;6.472;2022-07-29T13:12:19;8.38;;;3.30;;
52015;SDS011;38032;53.326;6.472;2022-07-29T13:14:47;4.70;;;2.40;;
52015;SDS011;38032;53.326;6.472;2022-07-29T13:17:15;6.82;;;3.00;;
52015;SDS011;38032;53.326;6.472;2022-07-29T13:19:49;4.13;;;2.20;;
52015;SDS011;38032;53.326;6.472;2022-07-29T13:22:20;6.97;;;2.47;;
52015;SDS011;38032;53.326;6.472;2022-07-29T13:24:48;5.38;;;2.50;;
52015;SDS011;38032;53.326;6.472;2022-07-29T13:27:21;5.03;;;2.80;;
52015;SDS011;38032;53.326;6.472;2022-07-29T13:29:48;7.38;;;2.10;;
52015;SDS011;38032;53.326;6.472;2022-07-29T13:32:16;4.72;;;2.40;;
52015;SDS011;38032;53.326;6.472;2022-07-29T13:34:42;6.05;;;2.28;;
52015;SDS011;38032;53.326;6.472;2022-07-29T13:37:08;4.40;;;2.30;;
52015;SDS011;38032;53.326;6.472;2022-07-29T13:39:33;5.00;;;2.53;;
52015;SDS011;38032;53.326;6.472;2022-07-29T13:41:59;5.70;;;2.10;;
52015;SDS011;38032;53.326;6.472;2022-07-29T13:44:26;6.72;;;2.50;;
52015;SDS011;38032;53.326;6.472;2022-07-29T13:46:51;5.22;;;2.33;;
52015;SDS011;38032;53.326;6.472;2022-07-29T13:49:17;8.18;;;2.83;;
52015;SDS011;38032;53.326;6.472;2022-07-29T13:51:43;7.43;;;2.45;;
52015;SDS011;38032;53.326;6.472;2022-07-29T13:54:09;8.52;;;2.33;;
52015;SDS011;38032;53.326;6.472;2022-07-29T13:56:35;4.78;;;2.00;;
52015;SDS011;38032;53.326;6.472;2022-07-29T13:59:00;6.18;;;2.40;;
52015;SDS011;38032;53.326;6.472;2022-07-29T14:01:26;6.57;;;2.40;;
52015;SDS011;38032;53.326;6.472;2022-07-29T14:03:53;6.85;;;2.35;;
52015;SDS011;38032;53.326;6.472;2022-07-29T14:06:19;5.53;;;2.22;;
52015;SDS011;38032;53.326;6.472;2022-07-29T14:08:44;3.92;;;2.20;;
52015;SDS011;38032;53.326;6.472;2022-07-29T14:11:10;5.15;;;2.30;;
52015;SDS011;38032;53.326;6.472;2022-07-29T14:13:36;4.50;;;2.05;;
52015;SDS011;38032;53.326;6.472;2022-07-29T14:16:02;5.53;;;2.30;;
52015;SDS011;38032;53.326;6.472;2022-07-29T14:18:28;5.07;;;2.40;;
52015;SDS011;38032;53.326;6.472;2022-07-29T14:20:53;5.25;;;2.60;;
52015;SDS011;38032;53.326;6.472;2022-07-29T14:23:19;5.50;;;2.47;;
52015;SDS011;38032;53.326;6.472;2022-07-29T14:25:45;5.10;;;2.10;;
52015;SDS011;38032;53.326;6.472;2022-07-29T14:28:11;4.85;;;2.42;;
52015;SDS011;38032;53.326;6.472;2022-07-29T14:30:38;5.70;;;2.38;;
52015;SDS011;38032;53.326;6.472;2022-07-29T14:33:03;5.22;;;2.13;;
52015;SDS011;38032;53.326;6.472;2022-07-29T14:35:29;6.72;;;2.30;;
52015;SDS011;38032;53.326;6.472;2022-07-29T14:37:55;4.80;;;2.22;;
52015;SDS011;38032;53.326;6.472;2022-07-29T14:40:22;6.15;;;2.45;;
52015;SDS011;38032;53.326;6.472;2022-07-29T14:42:48;6.35;;;2.67;;
52015;SDS011;38032;53.326;6.472;2022-07-29T14:45:14;4.38;;;1.90;;
52015;SDS011;38032;53.326;6.472;2022-07-29T14:47:40;5.65;;;2.38;;
52015;SDS011;38032;53.326;6.472;2022-07-29T14:50:06;5.47;;;2.22;;
52015;SDS011;38032;53.326;6.472;2022-07-29T14:52:33;7.00;;;2.60;;
52015;SDS011;38032;53.326;6.472;2022-07-29T14:54:59;6.90;;;2.20;;
52015;SDS011;38032;53.326;6.472;2022-07-29T14:57:24;8.93;;;2.35;;
52015;SDS011;38032;53.326;6.472;2022-07-29T14:59:50;7.30;;;2.58;;
52015;SDS011;38032;53.326;6.472;2022-07-29T15:02:16;4.93;;;2.05;;
52015;SDS011;38032;53.326;6.472;2022-07-29T15:04:42;4.97;;;2.10;;
52015;SDS011;38032;53.326;6.472;2022-07-29T15:07:09;4.78;;;2.35;;
52015;SDS011;38032;53.326;6.472;2022-07-29T15:09:35;6.18;;;2.10;;
52015;SDS011;38032;53.326;6.472;2022-07-29T15:12:01;4.47;;;2.40;;
52015;SDS011;38032;53.326;6.472;2022-07-29T15:14:28;6.18;;;2.17;;
52015;SDS011;38032;53.326;6.472;2022-07-29T15:16:54;4.38;;;2.30;;
52015;SDS011;38032;53.326;6.472;2022-07-29T15:19:19;3.90;;;2.00;;
52015;SDS011;38032;53.326;6.472;2022-07-29T15:21:45;6.00;;;2.17;;